Terminal Aerodrome Forecast
Issued by NWS

Current Version | Previous Version | Graphics & Text | Print | Product List | Glossary On
Versions: 1 2 3 4 5 6 7 8 9 10 11 12 13 14 15
000
FTUS41 KPBZ 181100
TAFHLG
TAF
KHLG 181123Z 1812/1912 28010G20KT P6SM BKN025
     FM181800 26012G22KT P6SM VCSH OVC020
     FM190300 30009KT P6SM BKN025=

USA.gov is the U.S. government's official web portal to all federal, state and local government web resources and services.